Time;durP1;ratioP1;P1;durP2;ratioP2;P2;SDS_P1;SDS_P2;PMS_P1;PMS_P2;Temp;Humidity;BMP_temperature;BMP_pressure;BME280_temperature;BME280_humidity;BME280_pressure;Samples;Min_cycle;Max_cycle;Signal;HPM_P1;HPM_P2
2023/01/18 00:01:41;;;;;;;28.00;10.70;;;2.50;99.90;;;;;;4414077;28;656457;-72
2023/01/18 00:04:28;;;;;;;30.13;11.47;;;2.50;99.90;;;;;;4442281;28;658075;-72
2023/01/18 00:07:15;;;;;;;29.55;11.77;;;2.50;99.90;;;;;;4426150;28;657843;-72
2023/01/18 00:10:02;;;;;;;22.57;10.40;;;2.50;99.90;;;;;;4438503;28;658338;-72
2023/01/18 00:12:52;;;;;;;26.80;11.50;;;2.40;99.90;;;;;;4431047;28;657439;-72
2023/01/18 00:15:39;;;;;;;33.83;14.63;;;2.40;99.90;;;;;;4435855;28;658518;-72
2023/01/18 00:18:26;;;;;;;34.77;15.33;;;2.30;99.90;;;;;;4430716;28;657488;-72
2023/01/18 00:21:13;;;;;;;40.73;17.53;;;2.30;99.90;;;;;;4439364;28;658306;-72
2023/01/18 00:24:00;;;;;;;39.50;15.30;;;2.20;99.90;;;;;;4418005;28;657983;-72
2023/01/18 00:26:48;;;;;;;44.50;19.90;;;2.30;99.90;;;;;;4445349;28;657680;-72
2023/01/18 00:29:37;;;;;;;43.60;18.63;;;2.20;99.90;;;;;;4433424;28;657757;-72
2023/01/18 00:32:24;;;;;;;36.93;17.13;;;2.20;99.90;;;;;;4443864;28;657521;-72
2023/01/18 00:35:11;;;;;;;36.77;17.23;;;2.10;99.90;;;;;;4423252;28;657943;-72
2023/01/18 00:37:59;;;;;;;38.50;17.87;;;2.10;99.90;;;;;;4437717;28;657641;-72
2023/01/18 00:40:46;;;;;;;46.83;22.03;;;2.10;99.90;;;;;;4413173;28;657782;-72
2023/01/18 00:43:38;;;;;;;48.35;21.85;;;2.10;99.90;;;;;;4440055;28;659012;-72
2023/01/18 00:46:27;;;;;;;42.80;19.00;;;2.00;99.90;;;;;;4402389;28;657663;-72
2023/01/18 00:49:14;;;;;;;37.47;17.40;;;2.00;99.90;;;;;;4442916;28;657058;-72
2023/01/18 00:52:01;;;;;;;36.60;17.97;;;2.00;99.90;;;;;;4422575;28;657798;-72
2023/01/18 00:54:49;;;;;;;35.57;15.77;;;1.90;99.90;;;;;;4437719;28;657580;-73
2023/01/18 00:57:36;;;;;;;41.13;18.93;;;1.80;99.90;;;;;;4427004;28;658933;-72
2023/01/18 01:00:25;;;;;;;39.37;17.00;;;1.80;99.90;;;;;;4440965;28;659847;-72
2023/01/18 01:03:14;;;;;;;43.03;20.67;;;1.70;99.90;;;;;;4420317;28;658240;-73
2023/01/18 01:09:06;;;;;;;34.37;15.07;;;1.70;99.90;;;;;;4395503;28;657876;-72
2023/01/18 01:27:17;;;;;;;33.78;15.65;;;1.60;99.90;;;;;;4377284;28;658946;-72
2023/01/18 01:30:06;;;;;;;33.10;16.33;;;1.60;99.90;;;;;;4429047;28;657343;-72
2023/01/18 01:32:53;;;;;;;27.63;12.33;;;1.60;99.90;;;;;;4403870;28;658178;-73
2023/01/18 01:35:40;;;;;;;21.87;11.57;;;1.60;99.90;;;;;;4406610;28;657530;-73
2023/01/18 01:38:29;;;;;;;40.07;19.00;;;1.60;99.90;;;;;;4419831;28;659175;-73
2023/01/18 01:41:18;;;;;;;26.47;13.23;;;1.60;99.90;;;;;;4400976;28;659141;-73
2023/01/18 01:44:39;;;;;;;23.43;11.77;;;1.50;99.90;;;;;;4398767;28;657391;-72
2023/01/18 01:47:34;;;;;;;21.27;9.90;;;1.50;99.90;;;;;;4378054;28;657529;-73
2023/01/18 01:50:24;;;;;;;69.60;18.07;;;1.50;99.90;;;;;;4402647;28;656725;-72
2023/01/18 01:53:11;;;;;;;43.67;13.63;;;1.50;99.90;;;;;;4396826;28;658027;-72
2023/01/18 01:56:00;;;;;;;46.30;14.50;;;1.50;99.90;;;;;;4424257;28;658263;-73
2023/01/18 01:58:47;;;;;;;14.17;7.13;;;1.50;99.90;;;;;;4400341;28;659104;-73
2023/01/18 02:01:34;;;;;;;16.52;7.07;;;1.40;99.90;;;;;;4426518;28;656317;-73
2023/01/18 02:04:21;;;;;;;11.67;5.30;;;1.50;99.90;;;;;;4407778;28;657440;-73
2023/01/18 02:07:09;;;;;;;20.87;7.67;;;1.50;99.90;;;;;;4427934;28;656304;-73
2023/01/18 02:09:56;;;;;;;24.23;8.00;;;1.40;99.90;;;;;;4402099;28;656485;-72
2023/01/18 02:12:46;;;;;;;18.23;7.15;;;1.40;99.90;;;;;;4428134;28;657220;-73
2023/01/18 02:15:36;;;;;;;19.03;7.97;;;1.40;99.90;;;;;;4398819;28;657201;-73
2023/01/18 02:18:24;;;;;;;13.17;6.77;;;1.40;99.90;;;;;;4398878;28;656829;-73
2023/01/18 02:21:13;;;;;;;12.90;6.00;;;1.40;99.90;;;;;;4422547;28;658020;-73
2023/01/18 02:24:37;;;;;;;13.17;5.80;;;1.40;99.90;;;;;;4417143;28;657890;-73
2023/01/18 02:27:26;;;;;;;8.77;4.57;;;1.40;99.90;;;;;;4429606;28;657103;-73
2023/01/18 02:30:20;;;;;;;11.13;5.00;;;1.40;99.90;;;;;;4447822;28;655926;-73
2023/01/18 02:33:10;;;;;;;7.17;3.67;;;1.40;99.90;;;;;;4420010;28;656821;-73
2023/01/18 02:35:57;;;;;;;4.80;2.93;;;1.40;99.90;;;;;;4410412;28;656606;-73
2023/01/18 02:38:45;;;;;;;7.00;3.93;;;1.40;99.90;;;;;;4430198;28;656082;-73
2023/01/18 02:47:44;;;;;;;9.63;5.30;;;1.40;99.90;;;;;;4417341;28;656139;-73
2023/01/18 02:50:31;;;;;;;8.03;4.33;;;1.40;99.90;;;;;;4422179;28;655589;-73
2023/01/18 02:53:18;;;;;;;7.30;3.57;;;1.30;99.90;;;;;;4446379;28;656168;-73
2023/01/18 02:56:08;;;;;;;5.67;3.43;;;1.40;99.90;;;;;;4424158;28;655664;-73
2023/01/18 02:58:57;;;;;;;5.60;3.00;;;1.40;99.90;;;;;;4418405;28;655097;-72
2023/01/18 03:01:46;;;;;;;4.20;2.47;;;1.40;99.90;;;;;;4443374;28;655820;-73
2023/01/18 03:04:36;;;;;;;4.63;2.90;;;1.40;99.90;;;;;;4418312;28;656678;-73
2023/01/18 03:07:25;;;;;;;6.13;2.80;;;1.40;99.90;;;;;;4425532;28;656253;-73
2023/01/18 03:10:14;;;;;;;3.28;2.30;;;1.40;99.90;;;;;;4419028;28;655859;-73
2023/01/18 03:13:04;;;;;;;3.67;2.37;;;1.40;99.90;;;;;;4310102;28;655769;-72
2023/01/18 03:15:52;;;;;;;4.83;2.77;;;1.40;99.90;;;;;;4246340;28;655634;-72
2023/01/18 03:18:58;;;;;;;14.43;7.80;;;1.40;99.90;;;;;;4302204;28;655551;-74
2023/01/18 03:21:50;;;;;;;9.50;6.20;;;1.40;99.90;;;;;;4395536;28;656706;-73
2023/01/18 03:24:40;;;;;;;4.87;2.93;;;1.40;99.90;;;;;;4418938;28;656672;-73
2023/01/18 03:33:45;;;;;;;6.47;3.20;;;1.50;99.90;;;;;;4417877;28;655366;-74
2023/01/18 03:36:33;;;;;;;5.00;2.47;;;1.50;99.90;;;;;;4420250;28;655896;-73
2023/01/18 03:39:27;;;;;;;3.77;2.50;;;1.50;99.90;;;;;;4432946;28;655291;-73
2023/01/18 03:42:16;;;;;;;2.87;2.13;;;1.50;99.90;;;;;;4424014;28;655719;-73
2023/01/18 03:45:05;;;;;;;3.27;2.00;;;1.50;99.90;;;;;;4420176;28;655924;-73
2023/01/18 03:47:52;;;;;;;4.90;3.13;;;1.50;99.90;;;;;;4411424;28;655706;-73
2023/01/18 03:50:46;;;;;;;3.87;2.50;;;1.50;99.90;;;;;;4439585;28;656137;-73
2023/01/18 03:53:37;;;;;;;4.80;2.60;;;1.50;99.90;;;;;;4424665;28;655052;-73
2023/01/18 03:56:30;;;;;;;2.73;1.80;;;1.50;99.90;;;;;;4445821;28;657178;-73
2023/01/18 03:59:17;;;;;;;3.58;2.30;;;1.40;99.90;;;;;;4430168;28;655589;-73
2023/01/18 04:02:05;;;;;;;7.20;4.07;;;1.40;99.90;;;;;;4450089;28;655194;-73
2023/01/18 04:04:56;;;;;;;8.47;4.07;;;1.40;99.90;;;;;;4423735;28;657082;-73
2023/01/18 04:07:43;;;;;;;11.00;5.10;;;1.40;99.90;;;;;;4412622;28;656210;-73
2023/01/18 04:10:30;;;;;;;13.33;7.33;;;1.40;99.90;;;;;;4426283;28;656268;-73
2023/01/18 04:13:19;;;;;;;4.70;3.00;;;1.40;99.90;;;;;;4453461;28;657290;-73
2023/01/18 04:16:07;;;;;;;4.93;2.97;;;1.40;99.90;;;;;;4422266;28;656246;-73
2023/01/18 04:18:54;;;;;;;8.10;5.43;;;1.30;99.90;;;;;;4437880;28;655658;-73
2023/01/18 04:21:41;;;;;;;6.43;3.63;;;1.30;99.90;;;;;;4429011;28;655815;-73
2023/01/18 04:24:28;;;;;;;6.95;3.80;;;1.30;99.90;;;;;;4452957;28;656114;-73
2023/01/18 04:27:16;;;;;;;8.10;4.43;;;1.30;99.90;;;;;;4419270;28;655737;-73
2023/01/18 04:30:05;;;;;;;6.93;3.97;;;1.30;99.90;;;;;;4437966;28;656059;-72
2023/01/18 04:32:52;;;;;;;9.50;4.00;;;1.30;99.90;;;;;;4416557;28;656252;-73
2023/01/18 04:35:40;;;;;;;11.37;5.27;;;1.30;99.90;;;;;;4444446;28;655527;-73
2023/01/18 04:38:28;;;;;;;11.30;5.53;;;1.40;99.90;;;;;;4444147;28;656701;-73
2023/01/18 04:41:15;;;;;;;12.52;6.85;;;1.40;99.90;;;;;;4420251;28;656912;-73
2023/01/18 04:44:03;;;;;;;13.70;7.13;;;1.30;99.90;;;;;;4440294;28;658483;-72
2023/01/18 04:46:52;;;;;;;12.63;7.30;;;1.40;99.90;;;;;;4438854;28;657204;-73
2023/01/18 04:49:39;;;;;;;7.47;4.50;;;1.40;99.90;;;;;;4445746;28;656758;-73
2023/01/18 04:52:26;;;;;;;6.17;3.40;;;1.40;99.90;;;;;;4427507;28;655901;-73
2023/01/18 04:55:15;;;;;;;8.33;4.30;;;1.40;99.90;;;;;;4443289;28;656842;-74
2023/01/18 04:58:03;;;;;;;8.37;5.17;;;1.40;99.90;;;;;;4418072;28;656761;-73
2023/01/18 05:00:50;;;;;;;13.00;6.43;;;1.40;99.90;;;;;;4429032;28;655751;-73
2023/01/18 05:03:40;;;;;;;16.97;7.83;;;1.40;99.90;;;;;;4437876;28;657609;-74
2023/01/18 05:06:27;;;;;;;12.73;6.40;;;1.40;99.90;;;;;;4417696;28;657294;-73
2023/01/18 05:09:14;;;;;;;12.70;6.87;;;1.30;99.90;;;;;;4447696;28;656080;-74
2023/01/18 05:12:02;;;;;;;7.77;5.10;;;1.40;99.90;;;;;;4417289;28;657151;-73
2023/01/18 05:14:49;;;;;;;10.17;6.80;;;1.40;99.90;;;;;;4443465;28;655812;-73
2023/01/18 05:17:36;;;;;;;8.83;5.47;;;1.30;99.90;;;;;;4419277;28;656984;-74
2023/01/18 05:20:25;;;;;;;8.47;5.33;;;1.40;99.90;;;;;;4449463;28;656093;-73
2023/01/18 05:23:13;;;;;;;21.13;11.77;;;1.40;99.90;;;;;;4418753;28;656617;-73
2023/01/18 05:26:00;;;;;;;13.73;7.53;;;1.40;99.90;;;;;;4427869;28;658109;-73
2023/01/18 05:28:48;;;;;;;11.60;6.10;;;1.40;99.90;;;;;;4435031;28;657932;-72
2023/01/18 05:31:35;;;;;;;10.10;6.57;;;1.40;99.90;;;;;;4428509;28;657175;-72
2023/01/18 05:34:22;;;;;;;69.33;16.23;;;1.30;99.90;;;;;;4436849;28;657892;-73
2023/01/18 05:37:12;;;;;;;30.80;8.80;;;1.30;99.90;;;;;;4435407;28;657752;-73
2023/01/18 05:39:59;;;;;;;53.57;13.60;;;1.40;99.90;;;;;;4444533;28;656212;-74
2023/01/18 05:42:46;;;;;;;67.83;16.97;;;1.30;99.90;;;;;;4423706;28;658610;-73
2023/01/18 05:45:33;;;;;;;62.80;12.67;;;1.40;99.90;;;;;;4443386;28;657920;-74
2023/01/18 05:48:21;;;;;;;171.90;29.37;;;1.30;99.90;;;;;;4420565;28;657762;-73
2023/01/18 05:51:09;;;;;;;106.60;24.80;;;1.40;99.90;;;;;;4438813;28;658906;-74
2023/01/18 05:53:57;;;;;;;62.03;17.93;;;1.40;99.90;;;;;;4418310;28;658671;-73
2023/01/18 05:56:45;;;;;;;46.73;16.73;;;1.40;99.90;;;;;;4438081;28;657891;-73
2023/01/18 05:59:32;;;;;;;21.17;8.40;;;1.40;99.90;;;;;;4439229;28;658108;-74
2023/01/18 06:02:20;;;;;;;45.23;12.53;;;1.40;99.90;;;;;;4436883;28;656585;-72
2023/01/18 06:05:08;;;;;;;38.23;9.80;;;1.40;99.90;;;;;;4441927;28;658213;-73
2023/01/18 06:07:55;;;;;;;20.43;7.97;;;1.40;99.90;;;;;;4421902;28;656902;-73
2023/01/18 06:10:44;;;;;;;31.00;11.17;;;1.40;99.90;;;;;;4443977;28;657141;-74
2023/01/18 06:13:31;;;;;;;45.13;15.40;;;1.40;99.90;;;;;;4419404;28;657797;-73
2023/01/18 06:16:18;;;;;;;37.17;14.27;;;1.40;99.90;;;;;;4440679;28;658349;-73
2023/01/18 06:19:06;;;;;;;17.47;7.77;;;1.40;99.90;;;;;;4418136;28;657637;-74
2023/01/18 06:21:53;;;;;;;18.17;8.90;;;1.50;99.90;;;;;;4440579;28;657593;-74
2023/01/18 06:24:40;;;;;;;28.48;10.75;;;1.40;99.90;;;;;;4427239;28;656645;-73
2023/01/18 06:27:29;;;;;;;25.03;11.90;;;1.50;99.90;;;;;;4444883;28;657161;-73
2023/01/18 06:30:17;;;;;;;19.27;9.10;;;1.50;99.90;;;;;;4416341;28;657271;-73
2023/01/18 06:33:05;;;;;;;14.47;7.30;;;1.50;99.90;;;;;;4444724;28;655824;-73
2023/01/18 06:35:53;;;;;;;11.40;6.67;;;1.50;99.90;;;;;;4418414;28;657361;-74
2023/01/18 06:38:40;;;;;;;12.33;6.93;;;1.50;99.90;;;;;;4433039;28;656558;-72
2023/01/18 06:41:28;;;;;;;12.20;7.37;;;1.50;99.90;;;;;;4442299;28;656697;-73
2023/01/18 06:44:17;;;;;;;11.03;5.50;;;1.50;99.90;;;;;;4419121;28;656567;-73
2023/01/18 06:47:04;;;;;;;18.93;9.63;;;1.60;99.90;;;;;;4436615;28;656863;-72
2023/01/18 06:49:51;;;;;;;21.67;10.70;;;1.50;99.90;;;;;;4418752;28;657209;-73
2023/01/18 06:52:38;;;;;;;25.73;9.95;;;1.60;99.90;;;;;;4443514;28;658395;-74
2023/01/18 06:55:26;;;;;;;20.90;10.50;;;1.60;99.90;;;;;;4425665;28;657497;-73
2023/01/18 06:58:13;;;;;;;28.65;9.98;;;1.60;99.90;;;;;;4441935;28;660413;-74
2023/01/18 07:01:02;;;;;;;18.43;8.80;;;1.50;99.90;;;;;;4416681;28;657411;-73
2023/01/18 07:03:49;;;;;;;19.33;9.63;;;1.50;99.90;;;;;;4436534;28;656112;-74
2023/01/18 07:06:37;;;;;;;21.00;9.77;;;1.60;99.90;;;;;;4416229;28;656687;-74
2023/01/18 07:09:24;;;;;;;23.80;10.17;;;1.60;99.90;;;;;;4434586;28;656541;-72
2023/01/18 07:12:11;;;;;;;22.97;10.83;;;1.70;99.90;;;;;;4420117;28;657426;-74
2023/01/18 07:14:58;;;;;;;22.07;10.00;;;1.60;99.90;;;;;;4441730;28;658553;-71
2023/01/18 07:17:49;;;;;;;22.97;10.63;;;1.70;99.90;;;;;;4421338;28;657627;-74
2023/01/18 07:20:36;;;;;;;27.87;9.83;;;1.70;99.90;;;;;;4413908;28;658005;-73
2023/01/18 07:23:23;;;;;;;27.90;10.77;;;1.70;99.90;;;;;;4432077;28;657539;-73
2023/01/18 07:26:14;;;;;;;22.65;11.10;;;1.60;99.90;;;;;;4418613;28;657531;-73
2023/01/18 07:29:01;;;;;;;39.40;13.93;;;1.70;99.90;;;;;;4422157;28;657851;-73
2023/01/18 07:31:48;;;;;;;31.40;14.17;;;1.60;99.90;;;;;;4440941;28;658821;-74
2023/01/18 07:34:37;;;;;;;38.57;14.63;;;1.60;99.90;;;;;;4418313;28;658098;-73
2023/01/18 07:37:24;;;;;;;74.63;16.40;;;1.70;99.90;;;;;;4437124;28;658547;-73
2023/01/18 07:40:14;;;;;;;154.00;17.53;;;1.70;99.90;;;;;;4415861;28;658245;-72
2023/01/18 07:43:01;;;;;;;280.30;17.27;;;1.70;99.90;;;;;;4414788;28;658752;-73
2023/01/18 07:45:52;;;;;;;197.23;15.00;;;1.70;99.90;;;;;;4437664;28;658686;-74
2023/01/18 07:48:40;;;;;;;235.27;16.57;;;1.70;99.90;;;;;;4413969;28;658935;-72
2023/01/18 07:51:29;;;;;;;169.43;14.87;;;1.70;99.90;;;;;;4410622;28;659954;-74
2023/01/18 07:54:17;;;;;;;145.40;15.27;;;1.70;99.90;;;;;;4414298;28;659330;-74
2023/01/18 07:57:05;;;;;;;122.67;16.07;;;1.70;99.90;;;;;;4430229;28;658474;-72
2023/01/18 07:59:53;;;;;;;473.80;24.70;;;1.70;99.90;;;;;;4435560;28;659223;-74
2023/01/18 08:02:40;;;;;;;242.50;19.27;;;1.70;99.90;;;;;;4430799;28;658822;-73
2023/01/18 08:05:28;;;;;;;161.77;16.50;;;1.80;99.90;;;;;;4445735;28;659003;-74
2023/01/18 08:08:17;;;;;;;379.23;20.10;;;1.70;99.90;;;;;;4421062;28;658557;-72
2023/01/18 08:11:06;;;;;;;160.50;15.07;;;1.70;99.90;;;;;;4439760;28;659761;-72
2023/01/18 08:13:53;;;;;;;109.17;13.27;;;1.70;99.90;;;;;;4408774;28;659164;-73
2023/01/18 08:16:40;;;;;;;43.30;9.70;;;1.70;99.90;;;;;;4405543;28;658508;-72
2023/01/18 08:19:27;;;;;;;36.33;10.03;;;1.70;99.90;;;;;;4436887;28;656906;-72
2023/01/18 08:22:15;;;;;;;119.80;12.57;;;1.60;99.90;;;;;;4441831;28;657602;-73
2023/01/18 08:25:04;;;;;;;21.50;9.43;;;1.60;99.90;;;;;;4444877;28;659191;-73
2023/01/18 08:27:52;;;;;;;25.40;8.97;;;1.70;99.90;;;;;;4418160;28;656764;-73
2023/01/18 08:30:40;;;;;;;32.13;10.47;;;1.70;99.90;;;;;;4444371;28;656686;-73
2023/01/18 08:33:27;;;;;;;23.40;10.07;;;1.70;99.90;;;;;;4420413;28;657735;-74
2023/01/18 08:36:15;;;;;;;42.93;10.07;;;1.70;99.90;;;;;;4441719;28;657728;-74
2023/01/18 08:39:03;;;;;;;43.97;9.37;;;1.80;99.90;;;;;;4416148;28;658221;-73
2023/01/18 08:41:52;;;;;;;23.02;8.13;;;1.80;99.90;;;;;;4423912;28;656784;-73
2023/01/18 08:44:39;;;;;;;15.97;7.77;;;1.80;99.90;;;;;;4433420;28;656724;-73
2023/01/18 08:47:26;;;;;;;30.37;12.20;;;1.80;99.90;;;;;;4417548;28;657246;-72
2023/01/18 08:50:13;;;;;;;28.40;12.77;;;1.80;99.90;;;;;;4440036;28;658644;-73
2023/01/18 08:53:01;;;;;;;24.77;10.90;;;1.90;99.90;;;;;;4414718;28;657845;-73
2023/01/18 08:55:48;;;;;;;25.73;11.63;;;1.80;99.90;;;;;;4431118;28;659352;-73
2023/01/18 08:58:37;;;;;;;17.83;7.97;;;1.80;99.90;;;;;;4417636;28;657407;-72
2023/01/18 09:01:24;;;;;;;19.70;9.75;;;1.80;99.90;;;;;;4450535;28;656289;-72
2023/01/18 09:04:12;;;;;;;20.70;10.00;;;1.80;99.90;;;;;;4412090;28;656891;-72
2023/01/18 09:06:59;;;;;;;27.67;8.17;;;1.80;99.90;;;;;;4437566;28;658049;-73
2023/01/18 09:09:47;;;;;;;322.53;13.70;;;1.70;99.90;;;;;;4418306;28;656303;-74
2023/01/18 09:12:34;;;;;;;174.30;11.37;;;1.50;99.90;;;;;;4259950;28;658865;-71
2023/01/18 09:15:23;;;;;;;229.53;12.07;;;1.50;99.90;;;;;;4238729;28;658632;-71
2023/01/18 09:18:10;;;;;;;444.57;16.10;;;1.60;99.90;;;;;;4357753;28;658823;-73
2023/01/18 09:21:07;;;;;;;234.47;11.73;;;1.60;99.90;;;;;;4901830;27;131549;-74
2023/01/18 09:23:54;;;;;;;17.23;7.55;;;1.60;99.90;;;;;;4379302;28;652371;-74
2023/01/18 09:26:41;;;;;;;29.53;8.93;;;1.50;99.90;;;;;;4407323;28;651957;-75
2023/01/18 09:29:29;;;;;;;19.73;8.37;;;1.50;99.90;;;;;;4427057;28;650363;-75
2023/01/18 09:32:17;;;;;;;23.13;8.80;;;1.50;99.90;;;;;;4399093;28;650501;-74
2023/01/18 09:35:04;;;;;;;28.40;10.77;;;1.50;99.90;;;;;;4422133;28;649968;-74
2023/01/18 09:37:54;;;;;;;37.83;13.83;;;1.50;99.90;;;;;;4395545;28;652985;-75
2023/01/18 09:40:43;;;;;;;53.17;14.97;;;1.50;99.90;;;;;;4398499;28;654219;-75
2023/01/18 09:43:32;;;;;;;69.80;15.77;;;1.30;99.90;;;;;;4407254;28;652004;-75
2023/01/18 09:46:20;;;;;;;97.38;19.75;;;1.30;99.90;;;;;;4410662;28;652947;-74
2023/01/18 09:49:12;;;;;;;103.97;24.03;;;1.30;99.90;;;;;;4408312;28;654418;-73
2023/01/18 09:52:07;;;;;;;101.90;20.80;;;1.30;99.90;;;;;;4388578;28;655411;-74
2023/01/18 09:54:59;;;;;;;59.83;19.13;;;1.40;99.90;;;;;;4392199;28;655120;-74
2023/01/18 09:57:56;;;;;;;50.10;16.67;;;1.30;99.90;;;;;;4375037;28;655043;-75
2023/01/18 10:00:45;;;;;;;42.30;15.40;;;1.20;99.90;;;;;;4395236;28;654667;-78
2023/01/18 10:03:34;;;;;;;42.40;17.17;;;1.30;99.90;;;;;;4398831;28;654829;-74
2023/01/18 10:06:24;;;;;;;29.37;13.27;;;1.40;99.90;;;;;;4395901;28;654129;-74
2023/01/18 10:09:14;;;;;;;42.33;18.10;;;1.30;99.90;;;;;;4395951;28;653489;-73
2023/01/18 10:12:04;;;;;;;44.10;18.00;;;1.30;99.90;;;;;;4390528;28;653444;-74
2023/01/18 10:14:53;;;;;;;38.53;13.07;;;1.30;99.90;;;;;;4394500;28;653444;-74
2023/01/18 10:17:41;;;;;;;48.65;17.08;;;1.40;99.90;;;;;;4408909;28;653473;-75
2023/01/18 10:20:31;;;;;;;40.20;14.23;;;1.40;99.90;;;;;;4429490;28;654437;-74
2023/01/18 10:23:22;;;;;;;33.90;14.47;;;1.50;99.90;;;;;;4404514;28;653731;-74
2023/01/18 10:26:11;;;;;;;41.40;15.50;;;1.40;99.90;;;;;;4408155;28;653447;-75
2023/01/18 10:29:02;;;;;;;37.57;14.20;;;1.50;99.90;;;;;;4400093;28;653707;-73
2023/01/18 10:31:55;;;;;;;53.03;18.57;;;1.40;99.90;;;;;;4404112;28;653924;-74
2023/01/18 10:34:44;;;;;;;48.47;18.92;;;1.50;99.90;;;;;;4382085;28;653831;-74
2023/01/18 10:37:37;;;;;;;50.55;19.70;;;1.30;99.90;;;;;;4385104;28;653945;-74
2023/01/18 10:40:24;;;;;;;48.83;18.73;;;1.50;99.90;;;;;;4391221;28;654097;-74
2023/01/18 10:43:14;;;;;;;48.10;18.13;;;1.40;99.90;;;;;;4388405;28;653286;-74
2023/01/18 10:46:03;;;;;;;50.43;18.83;;;1.40;99.90;;;;;;4390932;28;653802;-74
2023/01/18 10:48:51;;;;;;;42.20;16.33;;;1.40;99.90;;;;;;4394800;28;653974;-74
2023/01/18 10:51:39;;;;;;;41.63;17.40;;;1.40;99.90;;;;;;4416409;28;654297;-74
2023/01/18 10:54:27;;;;;;;45.67;18.63;;;1.40;99.90;;;;;;4396717;28;653454;-74
2023/01/18 10:57:21;;;;;;;43.37;18.00;;;1.30;99.90;;;;;;4415037;28;653339;-74
2023/01/18 11:00:21;;;;;;;38.57;15.00;;;1.30;99.90;;;;;;4385593;28;654080;-74
2023/01/18 11:03:13;;;;;;;36.60;15.37;;;1.30;99.90;;;;;;4392397;28;653763;-74
2023/01/18 11:06:03;;;;;;;34.72;14.95;;;1.40;99.90;;;;;;4392405;28;653855;-74
2023/01/18 11:08:50;;;;;;;38.13;16.17;;;1.30;99.90;;;;;;4391330;28;654106;-74
2023/01/18 11:14:42;;;;;;;37.00;17.43;;;1.40;99.90;;;;;;4369044;28;654727;-76
2023/01/18 11:17:32;;;;;;;28.87;11.47;;;1.40;99.90;;;;;;4407219;28;653416;-75
2023/01/18 11:20:22;;;;;;;31.23;13.87;;;1.40;99.90;;;;;;4387348;28;653470;-74
2023/01/18 11:23:16;;;;;;;31.67;14.90;;;1.40;99.90;;;;;;4388962;28;654157;-74
2023/01/18 11:26:06;;;;;;;31.30;13.93;;;1.40;99.90;;;;;;4386090;28;653560;-74
2023/01/18 11:28:57;;;;;;;28.47;13.40;;;1.50;99.90;;;;;;4387618;28;653822;-75
2023/01/18 11:31:46;;;;;;;30.90;13.30;;;1.40;99.90;;;;;;4382645;28;653752;-71
2023/01/18 11:34:34;;;;;;;22.40;9.13;;;1.30;99.90;;;;;;4409135;28;656227;-72
2023/01/18 11:37:29;;;;;;;30.30;12.63;;;1.40;99.90;;;;;;4396027;28;652952;-71
2023/01/18 11:40:26;;;;;;;21.43;9.80;;;1.30;99.90;;;;;;4369078;28;653138;-71
2023/01/18 11:43:16;;;;;;;23.80;10.20;;;1.20;99.90;;;;;;4378114;28;652829;-72
2023/01/18 11:46:20;;;;;;;25.97;12.33;;;1.30;99.90;;;;;;4372739;28;654167;-72
2023/01/18 11:49:16;;;;;;;19.20;9.20;;;1.40;99.90;;;;;;4354677;28;653430;-73
2023/01/18 11:52:04;;;;;;;21.00;10.33;;;1.50;99.90;;;;;;4368990;28;652524;-74
2023/01/18 11:54:54;;;;;;;23.43;10.73;;;1.60;99.90;;;;;;4383062;28;653580;-74
2023/01/18 11:57:41;;;;;;;24.50;12.00;;;1.60;99.90;;;;;;4394704;28;653417;-74
2023/01/18 12:00:31;;;;;;;29.33;12.40;;;1.60;99.90;;;;;;4451012;28;653376;-74
2023/01/18 12:03:28;;;;;;;23.97;12.03;;;1.60;99.90;;;;;;4425638;28;654552;-74
2023/01/18 12:06:22;;;;;;;20.97;8.50;;;1.50;99.90;;;;;;4401925;28;653974;-74
2023/01/18 12:09:24;;;;;;;26.83;12.43;;;1.50;99.90;;;;;;4411548;28;653683;-74
2023/01/18 12:12:23;;;;;;;23.07;12.07;;;1.60;99.90;;;;;;4411245;28;654646;-72
2023/01/18 12:15:22;;;;;;;24.53;12.07;;;1.50;99.90;;;;;;4388995;28;654911;-73
2023/01/18 12:18:18;;;;;;;21.33;10.90;;;1.50;99.90;;;;;;4412909;28;654843;-72
2023/01/18 12:21:08;;;;;;;32.07;13.37;;;1.50;99.90;;;;;;4402819;28;654407;-73
2023/01/18 12:24:06;;;;;;;35.13;15.93;;;1.50;99.90;;;;;;4421045;28;654426;-73
2023/01/18 12:26:56;;;;;;;32.97;14.03;;;1.40;99.90;;;;;;4408443;28;654983;-73
2023/01/18 12:30:06;;;;;;;35.53;16.63;;;1.40;99.90;;;;;;4410999;28;655060;-73
2023/01/18 12:33:03;;;;;;;38.17;15.70;;;1.30;99.90;;;;;;4409441;28;654900;-73
2023/01/18 12:35:58;;;;;;;42.10;20.37;;;1.40;99.90;;;;;;4400282;28;654675;-73
2023/01/18 12:38:47;;;;;;;40.80;18.43;;;1.30;99.90;;;;;;4412726;28;654759;-73
2023/01/18 12:41:38;;;;;;;40.40;18.90;;;1.40;99.90;;;;;;4445625;28;654766;-72
2023/01/18 12:44:47;;;;;;;39.47;18.73;;;1.50;99.90;;;;;;4388669;28;654249;-72
2023/01/18 12:47:38;;;;;;;41.43;18.97;;;1.50;99.90;;;;;;4414512;28;654661;-72
2023/01/18 12:50:27;;;;;;;42.90;20.10;;;1.60;99.90;;;;;;4408019;28;654804;-72
2023/01/18 12:53:17;;;;;;;34.37;15.87;;;1.50;99.90;;;;;;4436103;28;654870;-72
2023/01/18 12:56:06;;;;;;;38.37;17.63;;;1.50;99.90;;;;;;4409965;28;654666;-73
2023/01/18 12:58:55;;;;;;;36.07;16.07;;;1.40;99.90;;;;;;4420684;28;655357;-72
2023/01/18 13:01:44;;;;;;;47.60;22.20;;;1.40;99.90;;;;;;4408417;28;655377;-73
2023/01/18 13:04:34;;;;;;;44.37;21.97;;;1.40;99.90;;;;;;4422389;28;654678;-74
2023/01/18 13:07:25;;;;;;;52.13;22.50;;;1.40;99.90;;;;;;4416601;28;655909;-75
2023/01/18 13:10:16;;;;;;;51.67;22.15;;;1.40;99.90;;;;;;4416797;28;655358;-72
2023/01/18 13:13:04;;;;;;;54.77;22.00;;;1.40;99.90;;;;;;4414366;28;654395;-74
2023/01/18 13:15:53;;;;;;;49.30;17.67;;;1.40;99.90;;;;;;4408763;28;654525;-74
2023/01/18 13:18:43;;;;;;;46.27;19.60;;;1.40;99.90;;;;;;4416742;28;654848;-73
2023/01/18 13:21:41;;;;;;;54.30;22.00;;;1.30;99.90;;;;;;4434939;28;654606;-75
2023/01/18 13:24:45;;;;;;;45.47;19.27;;;1.30;99.90;;;;;;4401455;28;654755;-72
2023/01/18 13:27:33;;;;;;;58.53;24.73;;;1.10;99.90;;;;;;4410913;28;656854;-72
2023/01/18 13:30:20;;;;;;;64.35;26.00;;;1.10;99.90;;;;;;4417115;28;654348;-72
2023/01/18 13:33:12;;;;;;;59.73;25.03;;;1.10;99.90;;;;;;4437126;28;654464;-72
2023/01/18 13:36:03;;;;;;;64.67;27.63;;;1.10;99.90;;;;;;4413050;28;654119;-72
2023/01/18 13:38:53;;;;;;;62.90;26.30;;;1.00;99.90;;;;;;4401726;28;654657;-72
2023/01/18 13:41:40;;;;;;;53.72;21.50;;;1.00;99.90;;;;;;4414699;28;654234;-72
2023/01/18 13:44:31;;;;;;;59.87;23.30;;;1.00;99.90;;;;;;4435028;28;655345;-72
2023/01/18 13:47:46;;;;;;;60.33;23.80;;;1.00;99.90;;;;;;4415006;28;654776;-72
2023/01/18 13:50:47;;;;;;;64.30;26.37;;;1.00;99.90;;;;;;4413107;28;654958;-73
2023/01/18 13:53:48;;;;;;;67.20;26.97;;;0.80;99.90;;;;;;4412292;28;654352;-72
2023/01/18 13:56:37;;;;;;;67.10;27.90;;;0.80;99.90;;;;;;4400136;28;654839;-72
2023/01/18 13:59:24;;;;;;;49.07;19.67;;;0.90;99.90;;;;;;4424659;28;654853;-73
2023/01/18 14:02:18;;;;;;;62.87;27.03;;;0.90;99.90;;;;;;4405893;28;655272;-73
2023/01/18 14:05:07;;;;;;;70.93;29.27;;;1.00;99.90;;;;;;4386809;28;654989;-73
2023/01/18 14:07:55;;;;;;;73.37;28.10;;;1.10;99.90;;;;;;4438948;28;655450;-74
2023/01/18 14:10:46;;;;;;;63.70;27.63;;;1.00;99.90;;;;;;4417161;28;656442;-73
2023/01/18 14:14:07;;;;;;;67.33;27.87;;;0.90;99.90;;;;;;4414175;28;657059;-73
2023/01/18 14:16:57;;;;;;;68.93;25.83;;;0.90;99.90;;;;;;4406073;28;655584;-72
2023/01/18 14:20:17;;;;;;;76.13;30.13;;;0.90;99.90;;;;;;4420053;28;656264;-73
2023/01/18 14:23:15;;;;;;;73.90;28.03;;;0.90;99.90;;;;;;4408966;28;657855;-72
2023/01/18 14:26:04;;;;;;;58.23;23.87;;;0.80;99.90;;;;;;4415530;28;655982;-72
2023/01/18 14:28:52;;;;;;;67.40;28.03;;;0.80;99.90;;;;;;4420344;28;655325;-72
2023/01/18 14:31:43;;;;;;;67.87;28.60;;;0.90;99.90;;;;;;4443249;28;656114;-74
2023/01/18 14:34:37;;;;;;;71.53;29.10;;;0.90;99.90;;;;;;4400019;28;656911;-73
2023/01/18 14:37:27;;;;;;;70.03;28.33;;;0.90;99.90;;;;;;4419151;28;655476;-73
2023/01/18 14:40:17;;;;;;;76.90;31.60;;;0.90;99.90;;;;;;4442075;28;655675;-74
2023/01/18 14:43:04;;;;;;;67.87;27.50;;;0.90;99.90;;;;;;4416362;28;655886;-74
2023/01/18 14:45:55;;;;;;;75.23;30.30;;;1.00;99.90;;;;;;4417240;28;656093;-74
2023/01/18 14:48:47;;;;;;;63.30;26.53;;;1.00;99.90;;;;;;4413886;28;657149;-73
2023/01/18 14:51:34;;;;;;;70.20;28.33;;;1.10;99.90;;;;;;4408679;28;655006;-73
2023/01/18 14:54:23;;;;;;;55.50;23.40;;;1.10;99.90;;;;;;4421892;28;655566;-74
2023/01/18 14:57:12;;;;;;;62.83;24.70;;;1.20;99.90;;;;;;4424795;28;655477;-74
2023/01/18 15:00:08;;;;;;;60.70;26.43;;;1.20;99.90;;;;;;4420965;28;655540;-73